Terminal Aerodrome Forecast
Issued by NWS

Home | Current Version | Previous Version | Text Only | Print | Product List | Glossary On
Versions: 1 2 3 4 5 6 7 8 9 10 11 12 13 14 15 16 17 18 19 20 21 22 23 24 25 26 27 28 29 30 31 32 33
000
FTAK31 PAFA 020531
TAFABT
TAF
PABT 020531Z 0206/0306 00000KT P6SM -DZ SCT013 BKN021 OVC050
     FM021200 34003KT P6SM VCSH SCT015 OVC050
     FM030300 02003KT P6SM OVC050=

USA.gov is the U.S. government's official web portal to all federal, state and local government web resources and services.